Pagrindinis puslapis
METAR-TAF:

METAR-TAF

Oro uostai :

Medanas, Šiaurės Sumatra, Indonezija

platuma: 03-34N, ilguma: 098-41E, Aukštis: 25 m

METAR: trūkstamas

Laikas: 22:12 (15:12 UTC)

Prognozė

Ataskaita buvo paskelbta 4 valandos ir 12 minutes, ne 11:00 UTC
Prognozė galioja nuo 17 metu 12 UTC su 18 metu 12 UTC
Vėjas 3 kt nuo kintamojo kryptimis
Matomumas: 3000 m
Išsisklaidę debesys ne aukštis 2000 ft
rūkana
Tapsmas
nuo 18 metu 02 UTC su 18 metu 04 UTC
Vėjas 10 kt iš Šiaurės Rytų
Matomumas: 9000 m
Išsisklaidę debesys ne aukštis 1800 ft

TAF: WIMM 171100Z 1712/1812 VRB03KT 3000 BR SCT020 BECMG 1802/1804 05010KT 9000 SCT018

Orai ataskaitas ir orų prognozės (METAR, TAF).

turimą stotys yra geltonos ir raudonos taškus žemėlapyje.

Perkelti pele per norėdami pamatyti stoties vardą.

Tada spustelėkite, norėdami matyti oro stebėjimo ir prognozės.

Norėdami pakeisti žemėlapį: spustelėkite ant žalios mygtukų su juodo kryžiaus žemyn,; žalią mygtuką su brūkšneliu, jei norite nutolinti; arba žalių rodyklių gretimoms žemėlapius.


METAR-TAF: